Time;durP1;ratioP1;P1;durP2;ratioP2;P2;SDS_P1;SDS_P2;PMS_P1;PMS_P2;Temp;Humidity;BMP_temperature;BMP_pressure;BME280_temperature;BME280_humidity;BME280_pressure;Samples;Min_cycle;Max_cycle;Signal;HPM_P1;HPM_P2
2022/11/26 00:02:16;;;;;;;22.35;5.40;;;;;;;5.70;100.00;102467.38;4918410;29;20024;-35
2022/11/26 00:04:41;;;;;;;28.52;6.05;;;;;;;5.67;100.00;102470.28;4914659;29;20372;-36
2022/11/26 00:07:09;;;;;;;19.75;5.00;;;;;;;5.65;100.00;102473.03;4899298;29;20020;-35
2022/11/26 00:09:35;;;;;;;19.02;5.35;;;;;;;5.63;100.00;102474.97;4898960;29;20024;-35
2022/11/26 00:12:00;;;;;;;17.65;4.47;;;;;;;5.62;100.00;102477.75;4918172;29;20087;-36
2022/11/26 00:14:26;;;;;;;13.30;4.68;;;;;;;5.56;100.00;102475.53;4914869;29;20067;-38
2022/11/26 00:16:51;;;;;;;27.25;5.40;;;;;;;5.55;100.00;102473.81;4915008;29;20028;-38
2022/11/26 00:19:17;;;;;;;21.63;5.03;;;;;;;5.48;100.00;102479.59;4915427;29;20514;-36
2022/11/26 00:21:42;;;;;;;22.80;5.55;;;;;;;5.47;100.00;102475.19;4921674;29;20036;-37
2022/11/26 00:24:25;;;;;;;23.48;5.57;;;;;;;5.44;100.00;102475.41;4926721;29;20425;-37
2022/11/26 00:26:51;;;;;;;20.90;5.10;;;;;;;5.41;100.00;102480.13;4898341;29;20051;-36
2022/11/26 00:29:16;;;;;;;28.45;4.95;;;;;;;5.39;100.00;102480.22;4918325;29;20028;-38
2022/11/26 00:31:41;;;;;;;20.38;5.43;;;;;;;5.42;100.00;102477.34;4914470;29;20044;-38
2022/11/26 00:34:07;;;;;;;17.50;5.65;;;;;;;5.39;100.00;102485.56;4912846;29;20083;-36
2022/11/26 00:36:32;;;;;;;20.38;4.72;;;;;;;5.32;100.00;102492.31;4917614;29;20107;-38
2022/11/26 00:39:03;;;;;;;22.33;5.10;;;;;;;5.24;100.00;102489.34;4913437;29;20035;-38
2022/11/26 00:41:33;;;;;;;25.48;5.18;;;;;;;5.09;100.00;102485.06;4926521;29;20044;-38
2022/11/26 00:43:59;;;;;;;26.45;5.03;;;;;;;5.04;100.00;102488.03;4914144;29;20047;-35
2022/11/26 00:46:24;;;;;;;26.65;5.03;;;;;;;5.02;100.00;102484.59;4914384;29;20411;-36
2022/11/26 00:48:50;;;;;;;18.23;5.00;;;;;;;5.00;100.00;102487.41;4917430;29;20107;-36
2022/11/26 00:51:20;;;;;;;18.17;4.63;;;;;;;5.02;100.00;102481.94;4920970;29;20027;-37
2022/11/26 00:53:46;;;;;;;23.88;5.38;;;;;;;5.02;100.00;102487.28;4904403;29;20060;-36
2022/11/26 00:56:18;;;;;;;15.85;4.82;;;;;;;5.01;100.00;102489.09;4897168;29;20067;-35
2022/11/26 00:58:45;;;;;;;22.75;4.60;;;;;;;4.99;100.00;102483.00;4886769;29;20021;-36
2022/11/26 01:01:13;;;;;;;25.38;5.13;;;;;;;4.99;100.00;102495.50;4910131;29;20417;-36
2022/11/26 01:03:41;;;;;;;27.30;5.07;;;;;;;5.05;100.00;102495.94;4913851;29;20082;-35
2022/11/26 01:06:31;;;;;;;31.17;5.45;;;;;;;5.19;100.00;102503.00;4914638;29;20070;-36
2022/11/26 01:08:57;;;;;;;19.02;4.80;;;;;;;5.17;100.00;102504.91;4894475;29;20531;-37
2022/11/26 01:11:22;;;;;;;20.88;5.30;;;;;;;5.11;100.00;102507.13;4909016;29;20129;-35
2022/11/26 01:13:49;;;;;;;21.23;5.00;;;;;;;5.06;100.00;102497.66;4910973;29;20084;-36
2022/11/26 01:16:21;;;;;;;32.63;5.45;;;;;;;5.18;100.00;102511.09;4903727;29;20042;-37
2022/11/26 01:18:48;;;;;;;32.95;5.60;;;;;;;5.22;100.00;102524.13;4914028;29;20514;-36
2022/11/26 01:21:14;;;;;;;28.43;5.83;;;;;;;5.33;100.00;102523.38;4913817;29;20063;-36
2022/11/26 01:23:40;;;;;;;29.38;6.68;;;;;;;5.43;100.00;102527.13;4913516;29;20043;-36
2022/11/26 01:26:06;;;;;;;25.55;5.25;;;;;;;5.46;100.00;102526.91;4914183;29;20032;-37
2022/11/26 01:28:31;;;;;;;31.35;6.55;;;;;;;5.41;100.00;102529.03;4913724;29;20066;-37
2022/11/26 01:30:57;;;;;;;29.75;6.18;;;;;;;5.38;100.00;102529.25;4913095;29;20095;-39
2022/11/26 01:33:22;;;;;;;33.42;5.22;;;;;;;5.36;100.00;102525.00;4896494;29;20574;-38
2022/11/26 01:35:47;;;;;;;33.03;5.68;;;;;;;5.34;100.00;102522.41;4913944;29;20428;-36
2022/11/26 01:38:14;;;;;;;37.72;6.18;;;;;;;5.40;100.00;102526.50;4913707;29;20573;-36
2022/11/26 01:41:08;;;;;;;38.55;6.10;;;;;;;5.61;100.00;102534.78;4913653;29;20039;-36
2022/11/26 01:43:42;;;;;;;36.22;6.15;;;;;;;5.78;100.00;102523.78;4922521;29;20024;-39
2022/11/26 01:46:16;;;;;;;38.03;5.00;;;;;;;5.80;100.00;102521.88;4913569;29;20024;-38
2022/11/26 01:48:42;;;;;;;23.48;4.45;;;;;;;5.76;100.00;102528.38;4913619;29;20028;-39
2022/11/26 01:51:08;;;;;;;34.13;5.55;;;;;;;5.66;100.00;102532.66;4913354;29;20032;-36
2022/11/26 01:53:43;;;;;;;26.73;4.60;;;;;;;5.56;100.00;102528.94;4914055;29;20048;-39
2022/11/26 01:56:23;;;;;;;33.03;4.38;;;;;;;5.52;100.00;102528.28;4895337;29;20039;-37
2022/11/26 01:59:06;;;;;;;33.13;4.93;;;;;;;5.72;100.00;102530.41;4888412;29;20042;-38
2022/11/26 02:01:32;;;;;;;53.42;4.72;;;;;;;5.82;100.00;102522.63;4907864;29;20508;-36
2022/11/26 02:04:07;;;;;;;35.75;5.05;;;;;;;5.96;100.00;102534.16;4896198;29;20039;-39
2022/11/26 02:06:33;;;;;;;37.55;5.10;;;;;;;5.98;100.00;102529.53;4885162;29;20048;-37
2022/11/26 02:09:00;;;;;;;41.33;5.28;;;;;;;5.99;100.00;102536.59;4903566;29;20032;-38
2022/11/26 02:11:26;;;;;;;22.90;4.22;;;;;;;6.05;100.00;102528.13;4904349;29;20059;-36
2022/11/26 02:13:55;;;;;;;36.55;5.68;;;;;;;6.09;100.00;102534.97;4915757;29;20079;-35
2022/11/26 02:16:44;;;;;;;35.35;5.10;;;;;;;6.09;100.00;102530.50;4900527;29;20024;-38
2022/11/26 02:19:43;;;;;;;17.83;4.00;;;;;;;6.01;100.00;102537.34;4901956;29;20121;-37
2022/11/26 02:22:30;;;;;;;26.67;4.13;;;;;;;5.90;100.00;102535.44;4913910;29;20020;-37
2022/11/26 02:25:27;;;;;;;27.48;4.88;;;;;;;5.88;100.00;102548.03;4913835;29;20047;-36
2022/11/26 02:28:14;;;;;;;25.70;5.22;;;;;;;5.84;100.00;102551.88;4891256;29;20064;-36
2022/11/26 02:30:45;;;;;;;31.40;4.60;;;;;;;5.82;100.00;102557.34;4911585;29;20123;-38
2022/11/26 02:33:17;;;;;;;31.27;4.30;;;;;;;5.82;100.00;102554.69;4895370;29;20460;-38
2022/11/26 02:35:46;;;;;;;35.80;5.90;;;;;;;5.89;100.00;102561.28;4897826;29;20135;-36
2022/11/26 02:38:29;;;;;;;35.05;5.50;;;;;;;5.98;100.00;102553.59;4895244;29;20032;-35
2022/11/26 02:40:55;;;;;;;28.25;4.93;;;;;;;6.03;100.00;102556.78;4898360;29;20487;-36
2022/11/26 02:43:20;;;;;;;31.83;5.82;;;;;;;6.10;100.00;102545.53;4914323;29;20055;-36
2022/11/26 02:45:50;;;;;;;25.88;6.60;;;;;;;6.12;100.00;102554.31;4925882;29;20153;-36
2022/11/26 02:48:19;;;;;;;40.92;6.00;;;;;;;6.16;100.00;102560.28;4896674;29;20032;-37
2022/11/26 02:50:48;;;;;;;28.85;6.13;;;;;;;6.19;100.00;102557.41;4895050;29;20032;-36
2022/11/26 02:53:15;;;;;;;35.50;7.78;;;;;;;6.28;100.00;102559.41;4878135;29;20039;-35
2022/11/26 02:55:43;;;;;;;35.72;5.90;;;;;;;6.29;100.00;102555.78;4909675;29;20579;-37
2022/11/26 02:58:08;;;;;;;;;;;;;;;6.31;100.00;102566.34;4927104;29;20294;-36
2022/11/26 03:00:35;;;;;;;31.85;6.63;;;;;;;6.30;100.00;102565.50;4899278;29;20275;-35
2022/11/26 03:03:21;;;;;;;48.88;6.97;;;;;;;6.31;100.00;102564.53;4895954;29;20513;-36
2022/11/26 03:05:48;;;;;;;44.65;6.95;;;;;;;6.33;100.00;102559.94;4898371;29;20456;-37
2022/11/26 03:08:13;;;;;;;41.25;7.38;;;;;;;6.35;100.00;102562.50;4894606;29;20099;-38
2022/11/26 03:10:38;;;;;;;34.10;6.90;;;;;;;6.36;100.00;102566.88;4891480;29;20523;-36
2022/11/26 03:13:04;;;;;;;37.78;6.97;;;;;;;6.35;100.00;102562.50;4917031;29;20472;-37
2022/11/26 03:15:29;;;;;;;51.28;7.75;;;;;;;6.37;100.00;102561.41;4913245;29;20039;-36
2022/11/26 03:17:54;;;;;;;39.03;7.05;;;;;;;6.38;100.00;102557.78;4913557;29;20075;-36
2022/11/26 03:20:20;;;;;;;29.63;6.22;;;;;;;6.40;100.00;102571.03;4912791;29;20083;-36
2022/11/26 03:22:45;;;;;;;42.17;7.20;;;;;;;6.38;100.00;102573.81;4913484;29;20035;-36
2022/11/26 03:25:11;;;;;;;29.90;5.85;;;;;;;6.38;100.00;102579.16;4912850;29;20077;-36
2022/11/26 03:27:36;;;;;;;26.00;5.63;;;;;;;6.42;100.00;102573.59;4915751;29;20032;-38
2022/11/26 03:30:02;;;;;;;35.90;7.30;;;;;;;6.42;100.00;102578.94;4915968;29;20051;-37
2022/11/26 03:32:27;;;;;;;35.42;6.70;;;;;;;6.44;100.00;102583.22;4916887;29;20036;-36
2022/11/26 03:34:53;;;;;;;33.97;6.15;;;;;;;6.47;100.00;102587.47;4915557;29;20067;-36
2022/11/26 03:37:18;;;;;;;48.55;8.02;;;;;;;6.48;100.00;102594.56;4917278;29;20511;-38
2022/11/26 03:39:43;;;;;;;40.72;7.95;;;;;;;6.49;100.00;102591.75;4917251;29;20110;-35
2022/11/26 03:42:09;;;;;;;40.35;8.07;;;;;;;6.50;100.00;102600.63;4917074;29;20036;-37
2022/11/26 03:44:34;;;;;;;44.83;8.38;;;;;;;6.48;100.00;102586.53;4916069;29;20083;-37
2022/11/26 03:47:00;;;;;;;41.35;8.45;;;;;;;6.49;100.00;102594.44;4916269;29;20047;-36
2022/11/26 03:49:25;;;;;;;33.95;7.05;;;;;;;6.48;100.00;102594.56;4915170;29;20032;-36
2022/11/26 03:51:50;;;;;;;40.60;7.45;;;;;;;6.46;100.00;102599.16;4907956;29;20041;-36
2022/11/26 03:54:16;;;;;;;44.17;7.32;;;;;;;6.48;100.00;102606.09;4913751;29;20033;-36
2022/11/26 03:56:41;;;;;;;32.35;8.13;;;;;;;6.48;100.00;102603.44;4916054;29;20504;-38
2022/11/26 03:59:06;;;;;;;51.83;8.93;;;;;;;6.48;100.00;102608.78;4916148;29;20118;-36
2022/11/26 04:01:32;;;;;;;47.22;9.65;;;;;;;6.49;100.00;102607.78;4898551;29;20036;-37
2022/11/26 04:03:58;;;;;;;47.97;10.15;;;;;;;6.53;100.00;102605.75;4915671;29;20032;-36
2022/11/26 04:06:23;;;;;;;31.75;7.82;;;;;;;6.50;100.00;102597.94;4916336;29;20042;-36
2022/11/26 04:08:49;;;;;;;52.20;9.18;;;;;;;6.48;100.00;102595.41;4915119;29;20040;-38
2022/11/26 04:11:14;;;;;;;37.47;7.80;;;;;;;6.50;100.00;102600.63;4916635;29;20143;-36
2022/11/26 04:13:39;;;;;;;44.90;7.53;;;;;;;6.48;100.00;102600.75;4927331;29;20520;-36
2022/11/26 04:16:05;;;;;;;50.70;9.43;;;;;;;6.50;100.00;102605.97;4915023;29;20032;-36
2022/11/26 04:18:30;;;;;;;28.58;7.68;;;;;;;6.47;100.00;102611.56;4915035;29;20032;-36
2022/11/26 04:20:56;;;;;;;37.08;8.80;;;;;;;6.45;100.00;102605.44;4913981;29;20043;-38
2022/11/26 04:23:21;;;;;;;31.80;8.23;;;;;;;6.40;100.00;102610.28;4915630;29;20111;-36
2022/11/26 04:25:46;;;;;;;29.83;7.70;;;;;;;6.36;100.00;102605.16;4915206;29;20114;-36
2022/11/26 04:28:13;;;;;;;47.10;8.50;;;;;;;6.36;100.00;102594.47;4915120;29;20063;-36
2022/11/26 04:30:39;;;;;;;40.27;9.37;;;;;;;6.36;100.00;102594.47;4915023;29;20036;-37
2022/11/26 04:33:04;;;;;;;49.78;8.75;;;;;;;6.36;100.00;102591.78;4890663;29;20429;-36
2022/11/26 04:35:29;;;;;;;39.35;9.07;;;;;;;6.36;100.00;102594.47;4896740;29;20032;-35
2022/11/26 04:37:55;;;;;;;43.00;9.00;;;;;;;6.39;100.00;102601.41;4895593;29;20032;-37
2022/11/26 04:40:20;;;;;;;49.80;9.93;;;;;;;6.40;100.00;102602.25;4895688;29;20051;-36
2022/11/26 04:42:45;;;;;;;39.58;9.38;;;;;;;6.41;100.00;102606.66;4895952;29;20060;-36
2022/11/26 04:45:11;;;;;;;54.47;10.63;;;;;;;6.42;100.00;102613.69;4897938;29;20115;-36
2022/11/26 04:47:36;;;;;;;54.95;10.50;;;;;;;6.43;100.00;102607.41;4892510;29;20540;-36
2022/11/26 04:50:01;;;;;;;46.60;9.68;;;;;;;6.43;100.00;102610.94;4893146;29;20028;-36
2022/11/26 04:52:27;;;;;;;50.42;11.63;;;;;;;6.42;100.00;102609.19;4893468;29;20096;-36
2022/11/26 04:54:52;;;;;;;54.63;10.73;;;;;;;6.42;100.00;102616.38;4895628;29;20147;-37
2022/11/26 04:57:17;;;;;;;48.72;10.75;;;;;;;6.42;100.00;102614.56;4893553;29;20121;-37
2022/11/26 04:59:43;;;;;;;51.58;10.95;;;;;;;6.43;100.00;102618.94;4893396;29;20456;-37
2022/11/26 05:02:08;;;;;;;58.85;12.02;;;;;;;6.46;100.00;102620.56;4894237;29;20485;-37
2022/11/26 05:04:33;;;;;;;47.17;10.70;;;;;;;6.44;100.00;102620.66;4893686;29;20115;-36
2022/11/26 05:06:59;;;;;;;52.78;12.00;;;;;;;6.42;100.00;102624.41;4893762;29;20167;-37
2022/11/26 05:09:24;;;;;;;37.63;10.93;;;;;;;6.42;100.00;102627.94;4891297;29;20028;-36
2022/11/26 05:11:49;;;;;;;41.65;11.45;;;;;;;6.43;100.00;102628.81;4896319;29;20148;-35
2022/11/26 05:14:15;;;;;;;55.03;12.75;;;;;;;6.42;100.00;102637.78;4894966;29;20027;-35
2022/11/26 05:16:40;;;;;;;38.90;11.40;;;;;;;6.41;100.00;102631.56;4894436;29;20036;-36
2022/11/26 05:19:05;;;;;;;40.95;11.25;;;;;;;6.42;100.00;102627.06;4897053;29;20037;-35
2022/11/26 05:21:31;;;;;;;42.22;10.48;;;;;;;6.41;100.00;102636.94;4893479;29;20024;-35
2022/11/26 05:23:56;;;;;;;45.05;11.13;;;;;;;6.37;100.00;102636.31;4893427;29;20135;-36
2022/11/26 05:26:21;;;;;;;42.35;10.70;;;;;;;6.37;100.00;102641.66;4893600;29;20071;-36
2022/11/26 05:28:47;;;;;;;44.70;12.27;;;;;;;6.40;100.00;102645.03;4893582;29;20124;-34
2022/11/26 05:31:12;;;;;;;41.03;12.00;;;;;;;6.41;100.00;102644.09;4892561;29;20040;-36
2022/11/26 05:33:38;;;;;;;42.05;12.48;;;;;;;6.40;100.00;102642.38;4901539;29;20052;-35
2022/11/26 05:36:04;;;;;;;43.97;13.07;;;;;;;6.34;100.00;102641.00;4911871;29;20047;-36
2022/11/26 05:38:29;;;;;;;45.92;13.32;;;;;;;6.30;100.00;102643.03;4925786;29;20044;-37
2022/11/26 05:40:54;;;;;;;51.78;13.52;;;;;;;6.28;100.00;102647.63;4923425;29;20040;-35
2022/11/26 05:43:20;;;;;;;39.35;12.73;;;;;;;6.27;100.00;102651.28;4911108;29;20047;-36
2022/11/26 05:45:45;;;;;;;54.70;12.50;;;;;;;6.28;100.00;102658.34;4911737;29;20052;-36
2022/11/26 05:48:11;;;;;;;48.58;14.02;;;;;;;6.28;100.00;102661.00;4912257;29;20032;-37
2022/11/26 05:50:36;;;;;;;41.20;13.43;;;;;;;6.29;100.00;102654.72;4893428;29;20024;-35
2022/11/26 05:53:01;;;;;;;49.75;14.57;;;;;;;6.29;100.00;102648.50;4911615;29;20036;-36
2022/11/26 05:55:27;;;;;;;51.75;14.95;;;;;;;6.29;100.00;102654.72;4911214;29;20040;-37
2022/11/26 05:57:52;;;;;;;52.83;13.27;;;;;;;6.30;100.00;102655.56;4910355;29;20051;-36
2022/11/26 06:00:18;;;;;;;56.92;13.07;;;;;;;6.30;100.00;102656.41;4912546;29;20028;-34
2022/11/26 06:02:43;;;;;;;45.08;13.05;;;;;;;6.33;100.00;102650.00;4911044;29;20094;-36
2022/11/26 06:05:09;;;;;;;58.42;13.63;;;;;;;6.33;100.00;102655.34;4911102;29;20047;-36
2022/11/26 06:07:35;;;;;;;51.00;13.75;;;;;;;6.35;100.00;102643.56;4911358;29;20044;-37
2022/11/26 06:10:00;;;;;;;57.10;13.93;;;;;;;6.36;100.00;102650.63;4909844;29;20063;-36
2022/11/26 06:12:26;;;;;;;61.47;14.35;;;;;;;6.36;100.00;102639.91;4918071;29;20031;-36
2022/11/26 06:14:51;;;;;;;45.92;14.43;;;;;;;6.37;100.00;102660.38;4925885;29;20094;-37
2022/11/26 06:17:16;;;;;;;50.88;14.23;;;;;;;6.41;100.00;102660.16;4911866;29;20118;-38
2022/11/26 06:19:42;;;;;;;47.53;13.95;;;;;;;6.44;100.00;102665.28;4910461;29;20115;-36
2022/11/26 06:22:07;;;;;;;51.03;13.35;;;;;;;6.45;100.00;102648.25;4911940;29;20068;-36
2022/11/26 06:24:33;;;;;;;52.88;13.15;;;;;;;6.43;100.00;102659.06;4910888;29;20160;-35
2022/11/26 06:26:58;;;;;;;47.00;12.75;;;;;;;6.45;100.00;102658.94;4911352;29;20043;-38
2022/11/26 06:29:24;;;;;;;54.97;13.20;;;;;;;6.44;100.00;102658.09;4912835;29;20712;-36
2022/11/26 06:31:49;;;;;;;41.88;11.93;;;;;;;6.43;100.00;102659.06;4912237;29;20052;-37
2022/11/26 06:34:15;;;;;;;59.90;13.82;;;;;;;6.42;100.00;102660.03;4894514;29;20072;-36
2022/11/26 06:36:41;;;;;;;53.65;12.13;;;;;;;6.43;100.00;102661.75;4914505;29;20033;-38
2022/11/26 06:39:06;;;;;;;46.67;11.57;;;;;;;6.44;100.00;102660.78;4911589;29;20083;-38
2022/11/26 06:41:31;;;;;;;52.58;11.93;;;;;;;6.46;100.00;102664.19;4907789;29;20470;-36
2022/11/26 06:44:00;;;;;;;58.63;11.88;;;;;;;6.50;100.00;102670.16;4922843;29;20039;-36
2022/11/26 06:46:25;;;;;;;43.53;10.95;;;;;;;6.53;100.00;102680.66;4910656;29;20562;-36
2022/11/26 06:48:50;;;;;;;71.45;12.93;;;;;;;6.56;100.00;102675.09;4913368;29;20029;-36
2022/11/26 06:51:19;;;;;;;50.95;12.82;;;;;;;6.57;100.00;102687.50;4911690;29;20032;-39
2022/11/26 06:53:44;;;;;;;48.88;11.90;;;;;;;6.58;100.00;102682.06;4911015;29;20558;-38
2022/11/26 06:56:13;;;;;;;51.88;11.70;;;;;;;6.61;100.00;102680.97;4914360;29;20088;-34
2022/11/26 06:58:38;;;;;;;48.45;11.23;;;;;;;6.63;100.00;102684.38;4932202;29;20051;-37
2022/11/26 07:01:08;;;;;;;58.45;11.95;;;;;;;6.64;100.00;102682.56;4898364;29;20039;-38
2022/11/26 07:03:33;;;;;;;53.15;12.45;;;;;;;6.66;100.00;102683.28;4916341;29;20350;-37
2022/11/26 07:05:59;;;;;;;47.70;13.00;;;;;;;6.65;100.00;102694.97;4917317;29;20059;-35
2022/11/26 07:08:24;;;;;;;46.47;12.00;;;;;;;6.66;100.00;102689.53;4915011;29;20059;-35
2022/11/26 07:10:49;;;;;;;49.28;11.63;;;;;;;6.66;100.00;102694.00;4917547;29;20028;-35
2022/11/26 07:13:15;;;;;;;54.63;10.63;;;;;;;6.67;100.00;102696.56;4917215;29;20025;-35
2022/11/26 07:15:40;;;;;;;40.83;11.05;;;;;;;6.67;100.00;102688.53;4917058;29;20039;-35
2022/11/26 07:18:05;;;;;;;64.30;11.98;;;;;;;6.68;100.00;102697.41;4916605;29;20076;-37
2022/11/26 07:20:30;;;;;;;44.80;11.52;;;;;;;6.68;100.00;102694.75;4916953;29;20039;-37
2022/11/26 07:22:56;;;;;;;47.92;10.93;;;;;;;6.70;100.00;102709.72;4917043;29;20202;-36
2022/11/26 07:25:21;;;;;;;51.13;11.00;;;;;;;6.71;100.00;102700.72;4917324;29;20025;-37
2022/11/26 07:27:47;;;;;;;48.63;10.02;;;;;;;6.75;100.00;102702.22;4917838;29;20028;-35
2022/11/26 07:30:12;;;;;;;47.42;11.30;;;;;;;6.75;100.00;102704.03;4916765;29;20361;-36
2022/11/26 07:32:38;;;;;;;44.45;9.75;;;;;;;6.74;100.00;102707.66;4916760;29;20028;-36
2022/11/26 07:35:04;;;;;;;52.90;10.75;;;;;;;6.74;100.00;102711.22;4916272;29;20455;-36
2022/11/26 07:37:31;;;;;;;59.83;11.07;;;;;;;6.74;100.00;102719.25;4917737;29;20371;-36
2022/11/26 07:39:57;;;;;;;53.30;11.17;;;;;;;6.78;100.00;102715.38;4916343;29;20040;-37
2022/11/26 07:42:22;;;;;;;55.85;12.07;;;;;;;6.80;100.00;102705.41;4917704;29;20032;-36
2022/11/26 07:44:47;;;;;;;50.20;10.38;;;;;;;6.81;100.00;102708.94;4917563;29;20028;-35
2022/11/26 07:47:13;;;;;;;50.63;10.75;;;;;;;6.80;100.00;102716.13;4917685;29;20033;-38
2022/11/26 07:49:38;;;;;;;62.50;12.05;;;;;;;6.81;100.00;102709.78;4915783;29;20036;-36
2022/11/26 07:52:03;;;;;;;56.53;11.32;;;;;;;6.84;100.00;102714.06;4901154;29;20032;-36
2022/11/26 07:54:29;;;;;;;44.05;10.48;;;;;;;6.86;100.00;102722.84;4897061;29;20033;-35
2022/11/26 07:56:54;;;;;;;43.97;10.27;;;;;;;6.85;100.00;102715.78;4897636;29;20021;-35
2022/11/26 07:59:20;;;;;;;44.00;10.48;;;;;;;6.86;100.00;102716.66;4897140;29;20274;-36
2022/11/26 08:01:45;;;;;;;48.00;10.70;;;;;;;6.89;100.00;102716.41;4896917;29;20033;-35
2022/11/26 08:04:10;;;;;;;47.78;10.68;;;;;;;6.92;100.00;102713.50;4897455;29;20024;-37
2022/11/26 08:06:36;;;;;;;50.65;11.10;;;;;;;6.92;100.00;102714.34;4897749;29;20031;-35
2022/11/26 08:09:02;;;;;;;47.40;11.35;;;;;;;6.93;100.00;102712.56;4897308;29;20028;-35
2022/11/26 08:11:30;;;;;;;44.08;10.85;;;;;;;6.95;100.00;102716.84;4896425;29;20160;-36
2022/11/26 08:14:04;;;;;;;47.50;10.82;;;;;;;6.97;100.00;102725.59;4897207;29;20056;-36
2022/11/26 08:16:29;;;;;;;54.95;10.95;;;;;;;6.98;100.00;102726.47;4897237;29;20044;-37
2022/11/26 08:19:00;;;;;;;52.05;10.75;;;;;;;7.02;100.00;102725.25;4897554;29;20028;-37
2022/11/26 08:21:25;;;;;;;52.70;10.65;;;;;;;7.03;100.00;102727.00;4897179;29;20379;-38
2022/11/26 08:23:52;;;;;;;54.70;11.05;;;;;;;7.07;100.00;102731.13;4897476;29;20047;-37
2022/11/26 08:26:17;;;;;;;46.28;10.00;;;;;;;7.09;100.00;102723.84;4897282;29;20036;-36
2022/11/26 08:28:44;;;;;;;45.83;9.45;;;;;;;7.15;100.00;102727.91;4896992;29;20039;-36
2022/11/26 08:31:11;;;;;;;45.63;11.07;;;;;;;7.11;100.00;102742.47;4895533;29;20508;-37
2022/11/26 08:33:36;;;;;;;53.80;10.23;;;;;;;7.11;100.00;102735.31;4897192;29;20059;-37
2022/11/26 08:36:03;;;;;;;55.25;11.10;;;;;;;7.14;100.00;102743.09;4896884;29;20033;-35
2022/11/26 08:38:29;;;;;;;35.40;10.15;;;;;;;7.17;100.00;102742.88;4896830;29;20035;-35
2022/11/26 08:40:58;;;;;;;47.00;9.60;;;;;;;7.17;100.00;102736.69;4897111;29;20110;-38
2022/11/26 08:43:24;;;;;;;63.10;10.82;;;;;;;7.18;100.00;102731.19;4897068;29;20020;-38
2022/11/26 08:45:53;;;;;;;36.50;9.73;;;;;;;7.22;100.00;102740.72;4896908;29;20067;-36
2022/11/26 08:48:19;;;;;;;49.83;9.82;;;;;;;7.24;100.00;102732.56;4895617;29;20476;-38
2022/11/26 08:50:44;;;;;;;35.58;8.75;;;;;;;7.29;100.00;102740.25;4896437;29;20025;-36
2022/11/26 08:53:09;;;;;;;35.08;10.15;;;;;;;7.33;100.00;102731.03;4896587;29;20115;-39
2022/11/26 08:55:35;;;;;;;41.80;10.00;;;;;;;7.40;100.00;102732.28;4896470;29;20024;-39
2022/11/26 08:58:00;;;;;;;40.50;9.73;;;;;;;7.41;100.00;102734.00;4896630;29;20029;-37
2022/11/26 09:00:25;;;;;;;50.67;10.57;;;;;;;7.49;100.00;102739.63;4896402;29;20107;-36
2022/11/26 09:02:51;;;;;;;44.78;10.57;;;;;;;7.63;100.00;102743.94;4896581;29;20028;-37
2022/11/26 09:05:16;;;;;;;40.03;9.10;;;;;;;7.63;100.00;102739.44;4896389;29;20365;-39
2022/11/26 09:07:41;;;;;;;52.80;9.85;;;;;;;7.64;100.00;102751.88;4896463;29;20572;-36
2022/11/26 09:10:07;;;;;;;53.85;11.13;;;;;;;7.59;100.00;102740.66;4896311;29;20033;-35
2022/11/26 09:12:32;;;;;;;34.78;8.98;;;;;;;7.67;100.00;102748.97;4897369;29;20365;-36
2022/11/26 09:14:58;;;;;;;54.25;11.68;;;;;;;7.64;100.00;102743.00;4914389;29;20024;-38
2022/11/26 09:17:23;;;;;;;38.03;9.85;;;;;;;7.68;100.00;102742.63;4914354;29;20039;-38
2022/11/26 09:19:48;;;;;;;39.28;9.32;;;;;;;7.92;100.00;102752.44;4914954;29;20107;-38
2022/11/26 09:22:14;;;;;;;45.63;10.00;;;;;;;8.04;100.00;102747.97;4915027;29;20036;-35
2022/11/26 09:24:40;;;;;;;41.95;9.02;;;;;;;8.57;100.00;102741.09;4915016;29;20032;-36
2022/11/26 09:27:05;;;;;;;42.35;9.02;;;;;;;9.06;100.00;102738.09;4914738;29;20145;-35
2022/11/26 09:29:30;;;;;;;45.03;8.85;;;;;;;9.78;100.00;102732.97;4914923;29;20020;-35
2022/11/26 09:31:56;;;;;;;31.15;8.30;;;;;;;10.21;100.00;102729.25;4901078;29;20028;-36
2022/11/26 09:34:22;;;;;;;35.88;7.18;;;;;;;10.30;100.00;102727.66;4895521;29;20100;-36
2022/11/26 09:36:47;;;;;;;40.10;7.45;;;;;;;9.61;100.00;102726.34;4895644;29;20532;-36
2022/11/26 09:39:13;;;;;;;39.42;7.68;;;;;;;9.51;100.00;102738.00;4895866;29;20112;-35
2022/11/26 09:42:07;;;;;;;29.98;6.72;;;;;;;9.01;100.00;102741.19;4895957;29;20500;-34
2022/11/26 09:45:03;;;;;;;37.25;7.60;;;;;;;8.74;100.00;102744.25;4896017;29;20036;-36
2022/11/26 09:47:38;;;;;;;43.80;7.82;;;;;;;8.72;100.00;102735.50;4881537;29;20045;-38
2022/11/26 09:50:20;;;;;;;34.10;6.78;;;;;;;8.64;100.00;102737.94;4895810;29;20047;-35
2022/11/26 09:53:12;;;;;;;31.10;7.75;;;;;;;8.61;100.00;102735.47;4878819;29;20060;-36
2022/11/26 09:55:40;;;;;;;28.27;7.40;;;;;;;8.68;100.00;102734.03;4878808;29;20028;-34
2022/11/26 09:58:16;;;;;;;39.05;8.70;;;;;;;8.69;100.00;102741.09;4895546;29;20492;-36
2022/11/26 10:00:45;;;;;;;35.75;8.80;;;;;;;8.71;100.00;102741.81;4878704;29;20373;-36
2022/11/26 10:03:22;;;;;;;31.00;8.55;;;;;;;8.84;100.00;102741.69;4895365;29;20504;-38
2022/11/26 10:06:01;;;;;;;33.45;8.00;;;;;;;8.81;100.00;102739.25;4909709;29;20082;-37
2022/11/26 10:08:44;;;;;;;45.67;8.80;;;;;;;8.96;100.00;102740.72;4895064;29;20430;-36
2022/11/26 10:11:18;;;;;;;28.77;9.07;;;;;;;9.04;100.00;102748.16;4895021;29;20060;-36
2022/11/26 10:14:12;;;;;;;38.75;8.52;;;;;;;9.06;100.00;102746.16;4911994;29;20028;-38
2022/11/26 10:16:52;;;;;;;32.40;8.43;;;;;;;9.34;100.00;102748.28;4903027;29;20139;-36
2022/11/26 10:19:42;;;;;;;28.55;7.85;;;;;;;9.45;100.00;102742.03;4911662;29;20507;-36
2022/11/26 10:22:45;;;;;;;27.48;7.50;;;;;;;9.50;100.00;102736.28;4884130;29;20035;-38
2022/11/26 10:25:19;;;;;;;39.00;7.80;;;;;;;9.43;100.00;102734.09;4864788;29;20385;-38
2022/11/26 10:27:44;;;;;;;23.35;7.00;;;;;;;9.41;100.00;102736.06;4911506;29;20067;-36
2022/11/26 10:30:19;;;;;;;31.92;6.68;;;;;;;9.44;100.00;102738.50;4911487;29;20119;-36
2022/11/26 10:32:46;;;;;;;34.40;7.82;;;;;;;9.51;100.00;102741.53;4911527;29;20032;-37
2022/11/26 10:35:20;;;;;;;35.85;8.02;;;;;;;9.45;100.00;102740.22;4897200;29;20039;-37
2022/11/26 10:37:46;;;;;;;31.15;7.15;;;;;;;9.43;100.00;102744.84;4900727;29;20028;-38
2022/11/26 10:40:17;;;;;;;31.70;7.20;;;;;;;9.40;100.00;102738.88;4917708;29;20032;-36
2022/11/26 10:42:46;;;;;;;30.02;7.25;;;;;;;9.38;100.00;102736.31;4917827;29;20128;-36
2022/11/26 10:45:23;;;;;;;33.85;7.65;;;;;;;9.52;100.00;102737.00;4917611;29;20115;-35
2022/11/26 10:47:48;;;;;;;33.28;7.47;;;;;;;9.48;100.00;102740.91;4917401;29;20032;-36
2022/11/26 10:50:23;;;;;;;43.50;7.93;;;;;;;9.64;100.00;102741.34;4918019;29;20395;-36
2022/11/26 10:52:50;;;;;;;31.27;7.20;;;;;;;9.57;100.00;102741.00;4918819;29;20404;-36
2022/11/26 10:55:25;;;;;;;36.10;8.57;;;;;;;9.41;100.00;102738.75;4899542;29;20043;-37
2022/11/26 10:57:55;;;;;;;32.55;7.85;;;;;;;9.40;100.00;102734.38;4915124;29;20497;-38
2022/11/26 11:00:32;;;;;;;39.55;8.05;;;;;;;9.26;100.00;102742.69;4932047;29;20040;-35
2022/11/26 11:02:58;;;;;;;35.60;8.25;;;;;;;9.22;100.00;102749.31;4918444;29;20484;-36
2022/11/26 11:05:23;;;;;;;33.35;9.15;;;;;;;9.19;100.00;102752.28;4917290;29;20043;-38
2022/11/26 11:07:52;;;;;;;25.98;9.13;;;;;;;9.22;100.00;102752.00;4913106;29;20411;-37
2022/11/26 11:10:21;;;;;;;36.00;9.00;;;;;;;9.11;100.00;102755.59;4911642;29;20032;-36
2022/11/26 11:12:49;;;;;;;33.38;8.52;;;;;;;9.03;100.00;102758.03;4918705;29;20032;-35
2022/11/26 11:15:19;;;;;;;40.05;9.13;;;;;;;8.97;100.00;102754.00;4919179;29;20127;-38
2022/11/26 11:17:46;;;;;;;37.85;8.00;;;;;;;9.03;100.00;102763.41;4920582;29;20412;-37
2022/11/26 11:20:14;;;;;;;37.22;8.40;;;;;;;9.10;100.00;102764.59;4919271;29;20032;-37